Time;durP1;ratioP1;P1;durP2;ratioP2;P2;SDS_P1;SDS_P2;PMS_P1;PMS_P2;Temp;Humidity;BMP_temperature;BMP_pressure;BME280_temperature;BME280_humidity;BME280_pressure;Samples;Min_cycle;Max_cycle;Signal;HPM_P1;HPM_P2
2021/11/30 00:01:30;;;;;;;6.85;2.25;;;22.80;67.30;;;;;;5026811;28;20078;-71
2021/11/30 00:03:58;;;;;;;7.15;1.42;;;22.80;67.40;;;;;;5043281;28;20025;-71
2021/11/30 00:06:33;;;;;;;5.18;1.45;;;22.80;67.30;;;;;;5039936;28;20948;-72
2021/11/30 00:09:20;;;;;;;5.63;1.63;;;22.80;67.40;;;;;;5035490;28;20056;-74
2021/11/30 00:11:48;;;;;;;5.82;1.67;;;22.80;67.40;;;;;;5044267;28;20487;-76
2021/11/30 00:14:15;;;;;;;7.85;1.67;;;22.80;67.50;;;;;;5042564;28;20051;-71
2021/11/30 00:16:42;;;;;;;3.25;1.50;;;22.80;67.50;;;;;;5039758;28;20041;-74
2021/11/30 00:19:08;;;;;;;3.95;1.77;;;22.70;67.50;;;;;;5040758;28;20096;-75
2021/11/30 00:21:35;;;;;;;4.70;1.20;;;22.70;67.50;;;;;;5039723;28;20029;-74
2021/11/30 00:24:01;;;;;;;6.57;2.35;;;22.70;67.60;;;;;;5036868;28;20099;-75
2021/11/30 00:26:28;;;;;;;6.82;1.30;;;22.70;67.60;;;;;;5037594;28;20017;-75
2021/11/30 00:28:54;;;;;;;6.05;1.52;;;22.70;67.70;;;;;;5038119;28;20063;-76
2021/11/30 00:31:21;;;;;;;4.63;1.30;;;22.70;67.80;;;;;;5035754;28;20013;-75
2021/11/30 00:33:47;;;;;;;7.50;1.63;;;22.70;67.80;;;;;;5038206;28;20016;-75
2021/11/30 00:36:14;;;;;;;8.70;2.10;;;22.70;67.80;;;;;;5037020;28;20093;-76
2021/11/30 00:38:40;;;;;;;4.25;2.15;;;22.70;67.90;;;;;;5038746;28;20089;-74
2021/11/30 00:41:07;;;;;;;5.72;1.30;;;22.70;67.90;;;;;;5036594;28;20086;-75
2021/11/30 00:43:36;;;;;;;5.28;2.65;;;22.70;68.00;;;;;;5036790;28;20014;-74
2021/11/30 00:46:14;;;;;;;8.85;2.58;;;22.70;68.20;;;;;;5038314;28;20049;-73
2021/11/30 00:48:40;;;;;;;6.70;2.67;;;22.70;68.30;;;;;;5037132;28;20017;-75
2021/11/30 00:51:23;;;;;;;6.80;2.22;;;22.70;68.40;;;;;;5041334;28;20147;-75
2021/11/30 00:53:51;;;;;;;7.05;1.83;;;22.60;68.40;;;;;;5035962;28;20018;-74
2021/11/30 00:56:19;;;;;;;6.88;1.65;;;22.70;68.60;;;;;;5038641;28;20543;-74
2021/11/30 00:58:47;;;;;;;11.52;2.03;;;22.70;68.70;;;;;;5038074;28;20104;-75
2021/11/30 01:01:13;;;;;;;9.38;2.38;;;22.60;68.70;;;;;;5039150;28;20438;-75
2021/11/30 01:03:40;;;;;;;10.45;2.17;;;22.60;68.80;;;;;;5034535;28;20032;-76
2021/11/30 01:06:08;;;;;;;7.97;1.67;;;22.60;68.90;;;;;;5037199;28;20021;-73
2021/11/30 01:08:35;;;;;;;10.52;2.20;;;22.60;69.10;;;;;;5037256;28;20020;-73
2021/11/30 01:11:02;;;;;;;5.95;2.17;;;22.60;69.20;;;;;;5035439;28;20013;-72
2021/11/30 01:13:32;;;;;;;6.38;1.85;;;22.60;69.60;;;;;;5035583;28;20018;-71
2021/11/30 01:15:59;;;;;;;8.75;2.03;;;22.60;70.00;;;;;;5039797;28;20016;-73
2021/11/30 01:18:26;;;;;;;6.55;1.75;;;22.60;70.50;;;;;;5039437;28;20032;-71
2021/11/30 01:20:53;;;;;;;4.60;1.50;;;22.60;71.00;;;;;;5042158;28;20980;-71
2021/11/30 01:23:20;;;;;;;6.70;2.33;;;22.60;71.30;;;;;;5038951;28;20017;-72
2021/11/30 01:25:47;;;;;;;8.93;1.70;;;22.60;71.60;;;;;;5040292;28;20021;-71
2021/11/30 01:28:13;;;;;;;7.80;1.80;;;22.60;71.80;;;;;;5040510;28;20542;-72
2021/11/30 01:30:40;;;;;;;7.72;1.65;;;22.50;72.00;;;;;;5039533;28;20025;-72
2021/11/30 01:33:07;;;;;;;8.13;1.50;;;22.50;72.10;;;;;;5042541;28;20049;-73
2021/11/30 01:35:34;;;;;;;3.88;2.10;;;22.50;72.20;;;;;;5038804;28;20021;-71
2021/11/30 01:38:02;;;;;;;5.55;1.48;;;22.50;72.30;;;;;;5041542;28;20087;-71
2021/11/30 01:40:29;;;;;;;7.75;1.80;;;22.50;72.30;;;;;;5037184;28;20469;-74
2021/11/30 01:42:59;;;;;;;3.78;1.30;;;22.50;72.30;;;;;;5041329;28;20534;-71
2021/11/30 01:50:40;;;;;;;6.28;1.67;;;22.40;72.20;;;;;;5040894;28;20357;-75
2021/11/30 01:53:08;;;;;;;6.20;1.83;;;22.40;72.30;;;;;;5038311;28;20472;-71
2021/11/30 01:55:34;;;;;;;10.43;1.42;;;22.40;72.40;;;;;;5040815;28;20026;-73
2021/11/30 01:58:03;;;;;;;6.32;1.83;;;22.40;72.40;;;;;;5037027;28;20479;-71
2021/11/30 02:00:33;;;;;;;4.55;1.33;;;22.40;72.40;;;;;;5041145;28;20025;-72
2021/11/30 02:03:00;;;;;;;4.22;2.28;;;22.40;72.50;;;;;;5038474;28;20032;-72
2021/11/30 02:05:26;;;;;;;5.00;1.45;;;22.30;72.50;;;;;;5039881;28;20009;-72
2021/11/30 02:07:53;;;;;;;6.20;1.45;;;22.30;72.60;;;;;;5040403;28;20052;-72
2021/11/30 02:10:19;;;;;;;8.35;1.95;;;22.30;72.80;;;;;;5037968;28;20024;-74
2021/11/30 02:12:47;;;;;;;5.35;1.67;;;22.30;72.80;;;;;;5040091;28;20508;-72
2021/11/30 02:15:14;;;;;;;5.75;1.52;;;22.30;72.80;;;;;;5038986;28;20009;-73
2021/11/30 02:17:40;;;;;;;9.38;2.72;;;22.30;72.90;;;;;;5040951;28;20087;-72
2021/11/30 02:20:09;;;;;;;6.38;1.48;;;22.30;73.00;;;;;;5038313;28;20032;-73
2021/11/30 02:22:36;;;;;;;7.93;1.67;;;22.30;73.80;;;;;;5038862;28;20029;-73
2021/11/30 02:25:04;;;;;;;7.20;2.00;;;22.20;73.20;;;;;;5039974;28;20499;-70
2021/11/30 02:27:31;;;;;;;8.02;2.33;;;22.30;73.40;;;;;;5038684;28;20043;-71
2021/11/30 02:29:58;;;;;;;6.00;1.52;;;22.30;73.60;;;;;;5039488;28;20654;-72
2021/11/30 02:32:24;;;;;;;3.65;1.70;;;22.20;73.70;;;;;;5037551;28;20028;-71
2021/11/30 02:34:51;;;;;;;7.45;1.67;;;22.30;73.80;;;;;;5037456;28;20079;-71
2021/11/30 02:37:24;;;;;;;7.32;1.52;;;22.30;73.80;;;;;;5038156;28;20091;-71
2021/11/30 02:39:50;;;;;;;5.32;1.52;;;22.20;73.80;;;;;;5038796;28;20014;-71
2021/11/30 02:42:17;;;;;;;5.35;1.45;;;22.20;74.40;;;;;;5030907;28;20040;-75
2021/11/30 02:44:43;;;;;;;7.00;2.25;;;22.20;73.80;;;;;;5037307;28;20095;-72
2021/11/30 02:47:12;;;;;;;5.47;1.83;;;22.20;73.80;;;;;;5027325;28;20022;-74
2021/11/30 02:49:41;;;;;;;5.47;1.70;;;22.20;73.80;;;;;;5039013;28;20021;-73
2021/11/30 02:52:18;;;;;;;6.10;2.00;;;22.20;73.90;;;;;;5038196;28;20551;-71
2021/11/30 02:54:48;;;;;;;7.72;1.45;;;22.20;74.00;;;;;;5037418;28;20458;-73
2021/11/30 02:57:17;;;;;;;5.57;1.48;;;22.20;74.20;;;;;;5037050;28;20039;-71
2021/11/30 02:59:46;;;;;;;5.07;2.50;;;22.20;74.30;;;;;;5038625;28;20024;-70
2021/11/30 03:02:39;;;;;;;16.33;7.70;;;22.20;74.40;;;;;;5037294;28;20022;-71
2021/11/30 03:05:06;;;;;;;22.90;13.13;;;22.20;74.60;;;;;;5035212;28;20033;-76
2021/11/30 03:07:39;;;;;;;16.90;10.52;;;22.20;74.80;;;;;;5037340;28;20013;-72
2021/11/30 03:10:17;;;;;;;10.23;6.90;;;22.20;74.90;;;;;;5037700;28;20021;-72
2021/11/30 03:12:45;;;;;;;10.02;4.38;;;22.10;75.00;;;;;;5037940;28;20021;-71
2021/11/30 03:15:18;;;;;;;7.50;3.42;;;22.20;75.30;;;;;;5036364;28;20502;-71
2021/11/30 03:17:46;;;;;;;9.32;2.90;;;22.20;75.30;;;;;;5037918;28;20660;-73
2021/11/30 03:20:13;;;;;;;7.32;2.80;;;22.10;75.40;;;;;;5037427;28;20013;-73
2021/11/30 03:22:40;;;;;;;9.02;2.80;;;22.10;75.40;;;;;;5039445;28;20025;-71
2021/11/30 03:25:09;;;;;;;2.53;1.35;;;22.10;75.50;;;;;;5037133;28;20383;-71
2021/11/30 03:27:36;;;;;;;14.13;2.00;;;22.10;75.70;;;;;;5038088;28;20017;-70
2021/11/30 03:30:06;;;;;;;11.85;2.30;;;22.10;75.70;;;;;;5039176;28;20021;-74
2021/11/30 03:36:36;;;;;;;4.55;1.80;;;22.10;75.80;;;;;;5030003;28;20117;-73
2021/11/30 03:39:45;;;;;;;4.57;1.92;;;22.10;76.00;;;;;;5030098;28;20049;-73
2021/11/30 03:42:51;;;;;;;6.75;2.22;;;22.10;76.00;;;;;;5028848;28;20480;-72
2021/11/30 03:45:57;;;;;;;9.82;1.63;;;22.10;76.10;;;;;;5028796;28;20045;-74
2021/11/30 03:49:03;;;;;;;5.28;2.10;;;22.10;76.30;;;;;;5029783;28;20022;-75
2021/11/30 03:52:09;;;;;;;5.30;1.38;;;22.10;77.00;;;;;;5029736;28;20024;-75
2021/11/30 03:55:15;;;;;;;7.70;2.10;;;22.10;76.40;;;;;;5028746;28;20057;-73
2021/11/30 03:58:23;;;;;;;9.75;5.55;;;22.10;76.50;;;;;;5027521;28;20377;-75
2021/11/30 04:01:06;;;;;;;12.98;8.93;;;22.00;76.50;;;;;;5031119;28;20064;-76
2021/11/30 04:03:34;;;;;;;13.00;7.70;;;22.10;76.50;;;;;;5009139;28;20384;-77
2021/11/30 04:06:04;;;;;;;13.45;6.55;;;22.10;76.50;;;;;;5049537;28;20472;-73
2021/11/30 04:08:31;;;;;;;8.32;4.90;;;22.00;76.40;;;;;;5046820;28;20124;-73
2021/11/30 04:10:58;;;;;;;6.63;3.47;;;22.00;76.40;;;;;;5043663;28;20527;-71
2021/11/30 04:13:25;;;;;;;8.52;3.25;;;22.00;76.50;;;;;;5042539;28;20032;-72
2021/11/30 04:15:51;;;;;;;12.07;5.10;;;22.00;76.60;;;;;;5045166;28;20028;-71
2021/11/30 04:18:19;;;;;;;19.13;12.05;;;22.00;76.60;;;;;;5029795;28;20392;-74
2021/11/30 04:20:45;;;;;;;20.70;13.45;;;22.00;76.70;;;;;;5030036;28;20025;-70
2021/11/30 04:23:12;;;;;;;22.98;11.05;;;22.00;76.60;;;;;;5037325;28;20036;-68
2021/11/30 04:25:38;;;;;;;31.10;14.43;;;22.00;76.70;;;;;;5040064;28;20076;-69
2021/11/30 04:28:05;;;;;;;24.33;11.25;;;22.00;76.70;;;;;;5044850;28;20172;-76
2021/11/30 04:30:31;;;;;;;25.33;10.02;;;22.00;76.70;;;;;;5040107;28;20036;-71
2021/11/30 04:32:58;;;;;;;22.95;8.05;;;22.00;76.80;;;;;;5044651;28;20091;-71
2021/11/30 04:35:26;;;;;;;20.17;7.68;;;22.00;76.80;;;;;;5042543;28;20025;-72
2021/11/30 04:37:53;;;;;;;18.13;7.35;;;22.00;76.90;;;;;;5036104;28;20044;-73
2021/11/30 04:40:19;;;;;;;15.98;6.50;;;22.00;76.90;;;;;;5035404;28;20029;-72
2021/11/30 04:42:47;;;;;;;31.40;14.90;;;22.00;77.00;;;;;;5035817;28;20026;-71
2021/11/30 04:45:28;;;;;;;27.92;14.40;;;22.00;76.80;;;;;;5041101;28;20041;-71
2021/11/30 04:48:35;;;;;;;18.92;8.65;;;21.90;77.10;;;;;;5039694;28;20033;-71
2021/11/30 04:51:41;;;;;;;16.45;6.38;;;21.90;77.10;;;;;;5044760;28;20396;-71
2021/11/30 04:54:08;;;;;;;17.35;4.70;;;21.90;77.10;;;;;;5043521;28;20033;-73
2021/11/30 04:56:34;;;;;;;15.57;4.32;;;21.90;77.00;;;;;;5044369;28;20033;-70
2021/11/30 04:59:40;;;;;;;15.88;3.60;;;21.90;76.80;;;;;;5025684;28;20025;-71
2021/11/30 05:02:47;;;;;;;17.35;3.65;;;21.90;76.50;;;;;;5044986;28;20492;-70
2021/11/30 05:05:53;;;;;;;8.85;2.67;;;21.80;76.10;;;;;;5039288;28;20025;-71
2021/11/30 05:09:02;;;;;;;10.40;3.13;;;21.80;75.80;;;;;;5037351;28;20086;-70
2021/11/30 05:12:08;;;;;;;14.43;3.00;;;21.80;75.70;;;;;;5041426;28;20128;-72
2021/11/30 05:15:14;;;;;;;10.38;2.40;;;21.80;75.60;;;;;;5028862;28;20048;-71
2021/11/30 05:18:22;;;;;;;12.43;2.50;;;21.80;75.80;;;;;;5040660;28;20487;-71
2021/11/30 05:21:28;;;;;;;13.70;2.95;;;21.90;76.40;;;;;;5038838;28;20476;-70
2021/11/30 05:24:35;;;;;;;13.45;2.92;;;21.90;75.70;;;;;;5039915;28;20440;-70
2021/11/30 05:27:42;;;;;;;8.80;2.20;;;21.90;75.70;;;;;;5043892;28;20387;-70
2021/11/30 05:30:48;;;;;;;7.57;2.22;;;21.90;75.70;;;;;;5045899;28;20033;-70
2021/11/30 05:33:34;;;;;;;;;;;21.90;75.60;;;;;;5044933;28;20027;-70
2021/11/30 05:36:40;;;;;;;5.95;2.28;;;21.90;75.60;;;;;;5044965;28;19905;-70
2021/11/30 05:39:46;;;;;;;8.52;2.03;;;22.00;75.70;;;;;;5041694;28;20041;-69
2021/11/30 05:42:52;;;;;;;5.53;1.83;;;22.00;75.70;;;;;;5037117;28;20491;-70
2021/11/30 05:45:58;;;;;;;8.10;2.25;;;22.00;75.70;;;;;;5044483;28;20060;-69
2021/11/30 05:49:04;;;;;;;7.97;2.22;;;22.10;75.80;;;;;;5044753;28;20070;-69
2021/11/30 05:52:10;;;;;;;5.07;2.67;;;22.10;75.80;;;;;;5036755;28;20029;-69
2021/11/30 05:55:16;;;;;;;5.93;1.95;;;22.10;75.90;;;;;;5042461;28;20021;-70
2021/11/30 05:58:24;;;;;;;6.68;2.08;;;22.10;76.50;;;;;;5043479;28;20032;-69
2021/11/30 06:01:33;;;;;;;4.60;1.88;;;22.20;75.80;;;;;;5040688;28;20056;-70
2021/11/30 06:04:39;;;;;;;8.23;2.55;;;22.20;75.70;;;;;;5050810;28;20017;-72
2021/11/30 06:07:45;;;;;;;8.13;2.40;;;22.20;75.60;;;;;;5052093;28;20081;-69
2021/11/30 06:10:51;;;;;;;6.18;2.22;;;22.30;75.60;;;;;;5052240;28;20017;-69
2021/11/30 06:13:58;;;;;;;3.50;1.55;;;22.30;75.40;;;;;;5051202;28;20017;-70
2021/11/30 06:17:04;;;;;;;6.57;1.98;;;22.30;75.20;;;;;;5051100;28;20017;-70
2021/11/30 06:19:31;;;;;;;8.57;1.58;;;22.40;75.00;;;;;;5052143;28;20070;-70
2021/11/30 06:21:57;;;;;;;5.43;2.42;;;22.40;74.60;;;;;;5051035;28;20419;-70
2021/11/30 06:24:25;;;;;;;7.47;2.25;;;22.50;74.30;;;;;;5051711;28;20025;-70
2021/11/30 06:26:51;;;;;;;5.57;1.60;;;22.50;74.00;;;;;;5051374;28;20024;-70
2021/11/30 06:29:18;;;;;;;3.22;1.45;;;22.50;73.70;;;;;;5050761;28;20028;-71
2021/11/30 06:31:45;;;;;;;5.38;1.60;;;22.50;73.50;;;;;;5051563;28;20499;-71
2021/11/30 06:34:12;;;;;;;5.50;2.08;;;22.60;73.20;;;;;;5050471;28;20028;-70
2021/11/30 06:36:39;;;;;;;3.65;1.40;;;22.60;72.90;;;;;;5051589;28;20029;-72
2021/11/30 06:39:06;;;;;;;5.65;1.55;;;22.60;72.60;;;;;;5050439;28;20025;-70
2021/11/30 06:41:32;;;;;;;4.47;1.85;;;22.70;72.30;;;;;;5051343;28;20024;-72
2021/11/30 06:43:59;;;;;;;4.35;1.80;;;22.70;72.10;;;;;;5051014;28;20446;-71
2021/11/30 06:46:26;;;;;;;5.70;1.83;;;22.70;72.00;;;;;;5050608;28;20048;-70
2021/11/30 06:48:52;;;;;;;5.78;1.40;;;22.80;71.70;;;;;;5051350;28;20096;-70
2021/11/30 06:51:19;;;;;;;5.82;1.85;;;22.80;71.20;;;;;;5050288;28;20029;-70
2021/11/30 06:53:46;;;;;;;3.20;1.13;;;22.80;70.80;;;;;;5051301;28;20479;-70
2021/11/30 06:56:12;;;;;;;4.78;1.08;;;22.90;70.50;;;;;;5050054;28;20033;-71
2021/11/30 06:58:39;;;;;;;6.15;1.20;;;22.80;70.10;;;;;;5051229;28;20029;-73
2021/11/30 07:01:07;;;;;;;4.03;1.35;;;22.80;69.50;;;;;;5050325;28;20399;-74
2021/11/30 07:03:34;;;;;;;3.05;0.93;;;22.80;68.70;;;;;;5050681;28;20024;-71
2021/11/30 07:08:55;;;;;;;2.97;1.13;;;22.90;67.80;;;;;;5049962;28;20495;-72
2021/11/30 07:11:35;;;;;;;6.35;1.42;;;22.90;67.50;;;;;;5050785;28;20013;-71
2021/11/30 07:14:02;;;;;;;1.80;1.00;;;22.90;67.30;;;;;;5050221;28;20029;-73
2021/11/30 07:16:29;;;;;;;3.67;1.17;;;22.90;66.80;;;;;;5050244;28;20024;-71
2021/11/30 07:18:55;;;;;;;2.58;1.17;;;22.90;66.30;;;;;;5050856;28;20116;-72
2021/11/30 07:21:24;;;;;;;4.70;1.20;;;22.90;65.90;;;;;;5049945;28;20460;-74
2021/11/30 07:23:50;;;;;;;3.15;1.08;;;23.00;65.70;;;;;;5050709;28;20024;-72
2021/11/30 07:26:17;;;;;;;7.43;1.50;;;23.00;65.50;;;;;;5049379;28;20035;-73
2021/11/30 07:28:43;;;;;;;7.55;0.95;;;23.00;65.00;;;;;;5050609;28;20025;-74
2021/11/30 07:31:12;;;;;;;8.13;1.55;;;23.00;64.70;;;;;;5049782;28;20491;-70
2021/11/30 07:33:42;;;;;;;5.55;1.30;;;23.00;64.40;;;;;;5050230;28;20043;-71
2021/11/30 07:36:10;;;;;;;4.30;1.02;;;23.10;64.20;;;;;;5050452;28;20111;-70
2021/11/30 07:38:37;;;;;;;3.50;0.95;;;23.10;63.90;;;;;;5049418;28;20032;-72
2021/11/30 07:41:04;;;;;;;2.88;0.98;;;23.20;63.90;;;;;;5050564;28;20387;-74
2021/11/30 07:43:31;;;;;;;2.35;1.02;;;23.20;63.80;;;;;;5049549;28;20529;-72
2021/11/30 07:45:58;;;;;;;5.55;1.33;;;23.20;63.70;;;;;;5050276;28;20056;-71
2021/11/30 07:48:26;;;;;;;4.25;1.20;;;23.30;63.30;;;;;;5049511;28;20028;-76
2021/11/30 07:50:54;;;;;;;5.22;1.15;;;23.30;63.40;;;;;;5050086;28;20076;-73
2021/11/30 07:53:22;;;;;;;3.53;0.80;;;23.30;63.80;;;;;;5050164;28;20525;-72
2021/11/30 07:55:49;;;;;;;2.78;1.15;;;23.40;63.10;;;;;;5049478;28;20023;-73
2021/11/30 07:58:15;;;;;;;3.40;1.30;;;23.40;63.00;;;;;;5050241;28;20427;-75
2021/11/30 08:00:42;;;;;;;2.65;1.20;;;23.50;63.20;;;;;;5049092;28;20025;-73
2021/11/30 08:03:08;;;;;;;7.43;1.42;;;23.50;63.30;;;;;;5050418;28;20025;-72
2021/11/30 08:05:35;;;;;;;4.68;1.50;;;23.50;63.10;;;;;;5049064;28;20373;-72
2021/11/30 08:08:02;;;;;;;7.32;1.30;;;23.50;62.80;;;;;;5049845;28;20447;-72
2021/11/30 08:10:29;;;;;;;6.35;1.30;;;23.50;62.70;;;;;;5049583;28;20033;-72
2021/11/30 08:12:57;;;;;;;5.03;1.23;;;23.60;62.40;;;;;;5049299;28;20021;-71
2021/11/30 08:15:24;;;;;;;6.22;1.23;;;23.60;62.00;;;;;;5050034;28;20059;-74
2021/11/30 08:17:50;;;;;;;3.88;0.90;;;23.60;61.70;;;;;;5048877;28;20488;-77
2021/11/30 08:20:18;;;;;;;2.53;0.85;;;23.60;61.00;;;;;;5049937;28;20029;-73
2021/11/30 08:22:45;;;;;;;1.85;0.80;;;23.60;60.70;;;;;;5049150;28;20021;-75
2021/11/30 08:25:12;;;;;;;4.53;0.77;;;23.70;60.70;;;;;;5052599;28;20021;-74
2021/11/30 08:27:39;;;;;;;1.15;0.70;;;23.70;60.20;;;;;;5053642;28;20017;-77
2021/11/30 08:30:07;;;;;;;2.38;0.80;;;23.80;60.00;;;;;;5052064;28;20514;-72
2021/11/30 08:32:35;;;;;;;4.47;0.60;;;23.80;59.70;;;;;;5054039;28;20048;-76
2021/11/30 08:35:03;;;;;;;3.20;1.00;;;23.90;59.60;;;;;;5052714;28;20103;-72
2021/11/30 08:37:30;;;;;;;2.38;0.80;;;23.90;59.30;;;;;;5053674;28;20048;-76
2021/11/30 08:39:57;;;;;;;2.20;0.90;;;24.00;59.10;;;;;;5052756;28;20032;-76
2021/11/30 08:42:24;;;;;;;1.00;0.90;;;24.00;58.90;;;;;;5053694;28;20357;-76
2021/11/30 08:44:52;;;;;;;2.67;0.73;;;24.00;58.90;;;;;;5053105;28;20041;-76
2021/11/30 08:47:22;;;;;;;2.38;0.50;;;24.10;59.40;;;;;;5053047;28;20017;-75
2021/11/30 08:49:50;;;;;;;2.55;0.60;;;24.10;58.40;;;;;;5053546;28;20025;-72
2021/11/30 08:52:21;;;;;;;1.48;0.57;;;24.10;58.40;;;;;;5052447;28;20056;-74
2021/11/30 08:54:48;;;;;;;3.20;1.00;;;24.20;58.40;;;;;;5053599;28;20798;-76
2021/11/30 08:57:15;;;;;;;2.22;0.82;;;24.30;58.40;;;;;;5052305;28;20086;-77
2021/11/30 08:59:42;;;;;;;4.63;0.70;;;24.30;58.00;;;;;;5053423;28;20025;-73
2021/11/30 09:02:09;;;;;;;5.10;1.10;;;24.30;58.00;;;;;;5052833;28;20025;-72
2021/11/30 09:04:36;;;;;;;3.53;1.10;;;24.40;57.80;;;;;;5052704;28;20033;-75
2021/11/30 09:07:04;;;;;;;2.90;1.00;;;24.40;57.50;;;;;;5053311;28;20431;-76
2021/11/30 09:09:31;;;;;;;3.25;1.60;;;24.40;57.30;;;;;;5052201;28;20468;-73
2021/11/30 09:11:58;;;;;;;3.55;1.35;;;24.50;57.80;;;;;;5053228;28;20104;-72
2021/11/30 09:14:25;;;;;;;4.90;1.20;;;24.50;56.90;;;;;;5052195;28;20541;-80
2021/11/30 09:16:54;;;;;;;1.58;0.70;;;24.60;56.90;;;;;;5053197;28;20036;-72
2021/11/30 09:19:22;;;;;;;4.22;1.20;;;24.60;56.60;;;;;;5052534;28;20059;-72
2021/11/30 09:21:50;;;;;;;7.38;1.10;;;24.60;56.30;;;;;;5052546;28;20021;-76
2021/11/30 09:24:17;;;;;;;1.85;1.00;;;24.60;56.00;;;;;;5053420;28;20040;-72
2021/11/30 09:26:43;;;;;;;5.30;1.23;;;24.70;56.00;;;;;;5051928;28;20475;-72
2021/11/30 09:29:11;;;;;;;8.10;2.05;;;24.70;55.90;;;;;;5053000;28;20570;-73
2021/11/30 09:31:38;;;;;;;2.97;0.90;;;24.70;55.70;;;;;;5052245;28;20626;-72
2021/11/30 09:34:04;;;;;;;4.80;1.00;;;24.70;55.40;;;;;;5052837;28;20009;-73
2021/11/30 09:36:32;;;;;;;4.57;1.35;;;24.70;55.30;;;;;;5051535;28;20410;-73
2021/11/30 09:39:06;;;;;;;3.50;1.60;;;24.70;55.40;;;;;;5052369;28;20480;-74
2021/11/30 09:41:33;;;;;;;2.88;1.55;;;24.80;55.40;;;;;;5052788;28;20151;-73
2021/11/30 09:44:00;;;;;;;3.40;1.00;;;24.90;55.70;;;;;;5051570;28;20021;-73
2021/11/30 09:46:26;;;;;;;4.32;0.98;;;24.90;55.50;;;;;;5052403;28;20048;-72
2021/11/30 09:48:53;;;;;;;4.55;1.67;;;25.00;55.40;;;;;;5051799;28;20025;-72
2021/11/30 09:51:20;;;;;;;6.70;1.75;;;25.00;55.70;;;;;;5052510;28;20029;-73
2021/11/30 09:53:47;;;;;;;2.08;1.00;;;25.00;55.10;;;;;;5051920;28;20245;-72
2021/11/30 09:56:14;;;;;;;4.03;1.27;;;25.00;54.80;;;;;;5052056;28;20017;-73
2021/11/30 09:58:40;;;;;;;2.25;1.00;;;25.00;54.80;;;;;;5052262;28;20025;-74
2021/11/30 10:01:12;;;;;;;3.72;1.10;;;25.00;54.90;;;;;;5051242;28;20036;-79
2021/11/30 10:03:41;;;;;;;3.58;0.85;;;25.00;55.00;;;;;;5052298;28;20591;-74
2021/11/30 10:06:10;;;;;;;1.88;1.05;;;25.10;55.10;;;;;;5051046;28;20103;-72
2021/11/30 10:08:46;;;;;;;5.35;1.40;;;25.10;55.10;;;;;;5052190;28;20013;-74
2021/11/30 10:11:35;;;;;;;2.75;1.13;;;25.10;55.30;;;;;;5051564;28;20055;-72
2021/11/30 10:14:11;;;;;;;3.92;1.10;;;25.20;55.50;;;;;;5051209;28;20053;-73
2021/11/30 10:16:38;;;;;;;5.28;1.35;;;25.20;55.60;;;;;;5051982;28;20476;-77
2021/11/30 10:19:04;;;;;;;6.93;1.70;;;25.20;55.60;;;;;;5050958;28;20124;-72
2021/11/30 10:21:32;;;;;;;5.78;1.55;;;25.20;55.50;;;;;;5052050;28;20056;-74
2021/11/30 10:24:01;;;;;;;7.57;1.30;;;25.30;55.70;;;;;;5033167;28;20033;-72
2021/11/30 10:26:37;;;;;;;4.60;1.38;;;25.30;55.70;;;;;;5051571;28;20458;-74
2021/11/30 10:29:10;;;;;;;7.40;1.80;;;25.30;55.70;;;;;;5047183;28;20115;-73
2021/11/30 10:31:43;;;;;;;6.80;1.88;;;25.40;56.10;;;;;;5050338;28;20388;-72
2021/11/30 10:34:16;;;;;;;6.53;1.55;;;25.40;56.10;;;;;;5033699;28;20025;-72
2021/11/30 10:36:53;;;;;;;5.25;1.90;;;25.40;56.00;;;;;;5032421;28;20361;-72
2021/11/30 10:39:23;;;;;;;6.60;2.25;;;25.40;55.60;;;;;;5051319;28;20426;-73
2021/11/30 10:41:51;;;;;;;4.47;1.05;;;25.50;55.60;;;;;;5051444;28;20108;-73
2021/11/30 10:44:38;;;;;;;4.68;1.70;;;25.40;55.20;;;;;;5048961;28;20108;-72
2021/11/30 10:47:17;;;;;;;4.05;1.00;;;25.50;55.00;;;;;;5050470;28;20032;-72
2021/11/30 10:50:09;;;;;;;3.60;1.20;;;25.50;54.90;;;;;;5050476;28;20487;-71
2021/11/30 10:52:36;;;;;;;4.75;1.80;;;25.50;54.80;;;;;;5050848;28;20016;-73
2021/11/30 10:55:14;;;;;;;2.85;1.00;;;25.50;54.60;;;;;;5051471;28;20025;-77
2021/11/30 10:57:47;;;;;;;5.00;1.38;;;25.50;54.60;;;;;;5050055;28;20036;-72
2021/11/30 11:00:33;;;;;;;6.28;1.38;;;25.60;55.00;;;;;;5051259;28;20028;-74
2021/11/30 11:03:09;;;;;;;4.05;1.50;;;25.50;54.30;;;;;;5050697;28;20020;-72
2021/11/30 11:05:39;;;;;;;3.17;1.20;;;25.50;54.20;;;;;;5050534;28;20028;-72
2021/11/30 11:08:14;;;;;;;5.22;1.10;;;25.50;54.20;;;;;;5051241;28;20395;-73
2021/11/30 11:10:46;;;;;;;3.10;1.10;;;25.50;54.20;;;;;;5049887;28;20037;-73
2021/11/30 11:13:38;;;;;;;5.78;1.27;;;25.60;54.30;;;;;;5051069;28;20490;-72
2021/11/30 11:16:07;;;;;;;4.93;0.98;;;25.60;54.20;;;;;;5050600;28;20056;-75
2021/11/30 11:18:38;;;;;;;4.00;1.20;;;25.60;54.40;;;;;;5049661;28;20029;-74
2021/11/30 11:21:16;;;;;;;4.25;1.02;;;25.60;54.70;;;;;;5050209;28;20017;-71
2021/11/30 11:23:48;;;;;;;4.78;1.10;;;25.60;55.00;;;;;;5049060;28;20029;-70
2021/11/30 11:26:15;;;;;;;6.43;1.45;;;25.60;55.50;;;;;;5050383;28;20660;-70
2021/11/30 11:28:42;;;;;;;2.85;1.23;;;25.70;55.50;;;;;;5049470;28;20033;-73
2021/11/30 11:31:09;;;;;;;4.85;1.08;;;25.70;55.70;;;;;;5049717;28;20025;-79
2021/11/30 11:33:36;;;;;;;7.78;2.15;;;25.70;55.90;;;;;;5050279;28;20029;-74
2021/11/30 11:36:05;;;;;;;5.60;1.10;;;25.80;56.20;;;;;;5048925;28;20044;-77
2021/11/30 11:38:33;;;;;;;7.43;2.22;;;25.90;56.10;;;;;;5049812;28;20123;-76
2021/11/30 11:41:00;;;;;;;5.63;1.75;;;25.90;56.00;;;;;;5048817;28;20017;-76
2021/11/30 11:43:27;;;;;;;7.43;1.65;;;25.90;56.00;;;;;;5047202;28;20099;-75
2021/11/30 11:45:54;;;;;;;7.32;1.73;;;25.90;55.80;;;;;;5048857;28;20041;-76
2021/11/30 11:48:27;;;;;;;7.75;1.25;;;25.90;55.90;;;;;;5050057;28;20025;-74
2021/11/30 11:50:59;;;;;;;5.00;1.10;;;25.90;55.90;;;;;;5031889;28;20025;-75
2021/11/30 11:53:27;;;;;;;6.40;1.60;;;26.00;56.00;;;;;;5029030;28;20116;-76
2021/11/30 11:56:12;;;;;;;5.20;1.10;;;26.00;55.90;;;;;;5043991;28;20087;-76
2021/11/30 11:58:40;;;;;;;5.20;1.48;;;26.00;56.00;;;;;;5038031;28;20033;-73
2021/11/30 12:01:13;;;;;;;6.90;1.00;;;26.00;56.10;;;;;;5047012;28;20136;-72
2021/11/30 12:03:54;;;;;;;7.32;2.90;;;26.00;56.10;;;;;;5029768;28;20022;-69
2021/11/30 12:06:25;;;;;;;5.72;1.73;;;26.00;56.20;;;;;;5027936;28;20473;-76
2021/11/30 12:09:15;;;;;;;7.13;1.63;;;26.00;56.20;;;;;;5040415;28;20036;-72
2021/11/30 12:11:43;;;;;;;7.45;2.05;;;26.00;56.00;;;;;;5046246;28;20029;-77
2021/11/30 12:14:29;;;;;;;9.77;1.77;;;26.00;55.90;;;;;;5049613;28;20036;-75
2021/11/30 12:17:21;;;;;;;5.22;1.58;;;26.00;55.90;;;;;;5037672;28;20044;-75
2021/11/30 12:19:57;;;;;;;5.25;1.45;;;26.00;55.80;;;;;;5047069;28;20446;-74
2021/11/30 12:22:43;;;;;;;7.03;1.27;;;26.00;55.60;;;;;;5049743;28;20024;-76
2021/11/30 12:25:29;;;;;;;8.63;1.90;;;26.10;55.30;;;;;;5048762;28;20502;-76
2021/11/30 12:28:02;;;;;;;5.72;2.15;;;26.00;54.80;;;;;;5028452;28;20063;-75
2021/11/30 12:30:53;;;;;;;4.72;2.08;;;26.10;55.20;;;;;;5029560;28;20025;-72
2021/11/30 12:33:38;;;;;;;7.32;2.15;;;26.10;54.60;;;;;;5029105;28;20026;-75
2021/11/30 12:36:13;;;;;;;6.18;2.30;;;26.20;54.50;;;;;;5029635;28;20029;-78
2021/11/30 12:38:58;;;;;;;7.47;1.92;;;26.20;54.60;;;;;;5048968;28;20037;-76
2021/11/30 12:41:30;;;;;;;7.60;1.55;;;26.20;54.70;;;;;;5031452;28;20041;-72
2021/11/30 12:44:06;;;;;;;6.80;2.17;;;26.20;54.60;;;;;;5035052;28;20064;-74
2021/11/30 12:46:43;;;;;;;5.68;1.85;;;26.20;54.80;;;;;;5046058;28;20491;-73
2021/11/30 12:49:28;;;;;;;5.72;1.98;;;26.20;54.90;;;;;;5047398;28;20020;-74
2021/11/30 12:52:09;;;;;;;6.63;1.63;;;26.30;55.00;;;;;;5048862;28;20134;-73
2021/11/30 12:54:38;;;;;;;5.93;1.60;;;26.30;55.30;;;;;;5048376;28;20025;-73
2021/11/30 12:57:06;;;;;;;5.50;1.73;;;26.20;55.30;;;;;;5047984;28;20553;-74
2021/11/30 12:59:41;;;;;;;8.77;1.45;;;26.30;55.40;;;;;;5033496;28;20105;-70
2021/11/30 13:02:34;;;;;;;3.15;1.33;;;26.20;55.50;;;;;;5029132;28;20108;-74
2021/11/30 13:05:10;;;;;;;4.57;2.33;;;26.10;55.40;;;;;;5029853;28;20033;-73
2021/11/30 13:07:49;;;;;;;4.97;1.48;;;26.10;55.50;;;;;;5026905;28;20025;-73
2021/11/30 13:10:18;;;;;;;6.45;1.33;;;26.10;55.50;;;;;;5029847;28;20033;-73
2021/11/30 13:12:45;;;;;;;8.20;1.95;;;26.10;55.70;;;;;;5033060;28;20112;-73
2021/11/30 13:15:12;;;;;;;9.30;1.98;;;26.10;55.90;;;;;;5032564;28;20026;-72
2021/11/30 13:17:38;;;;;;;9.68;2.97;;;26.10;55.80;;;;;;5032715;28;20030;-72
2021/11/30 13:20:14;;;;;;;8.32;1.83;;;26.10;55.80;;;;;;5030646;28;20036;-72
2021/11/30 13:22:47;;;;;;;6.05;1.58;;;26.10;55.90;;;;;;5032776;28;20025;-74
2021/11/30 13:25:22;;;;;;;4.85;1.55;;;26.10;56.10;;;;;;5031772;28;20032;-73
2021/11/30 13:27:54;;;;;;;12.00;1.90;;;26.10;56.10;;;;;;5030196;28;20480;-73
2021/11/30 13:30:23;;;;;;;10.75;2.40;;;26.10;56.00;;;;;;5031883;28;20060;-74
2021/11/30 13:32:53;;;;;;;7.38;1.70;;;26.20;56.10;;;;;;5031233;28;20021;-75